Time;durP1;ratioP1;P1;durP2;ratioP2;P2;SDS_P1;SDS_P2;PMS_P1;PMS_P2;Temp;Humidity;BMP_temperature;BMP_pressure;BME280_temperature;BME280_humidity;BME280_pressure;Samples;Min_cycle;Max_cycle;Signal;HPM_P1;HPM_P2
2022/04/02 00:02:10;;;;;;;7.18;2.90;;;0.40;99.90;;;;;;4947987;23;20102;-81
2022/04/02 00:04:36;;;;;;;5.18;2.38;;;0.10;99.90;;;;;;4963025;23;20133;-82
2022/04/02 00:07:02;;;;;;;6.43;2.33;;;0.30;99.90;;;;;;4908862;29;20191;-81
2022/04/02 00:09:28;;;;;;;6.50;2.58;;;0.30;99.90;;;;;;4954058;23;20074;-81
2022/04/02 00:11:54;;;;;;;7.60;2.80;;;0.30;99.90;;;;;;4960314;23;20061;-81
2022/04/02 00:14:26;;;;;;;7.30;2.72;;;0.20;99.90;;;;;;4959707;23;20050;-82
2022/04/02 00:16:52;;;;;;;5.65;2.63;;;0.20;99.90;;;;;;4967548;23;20050;-82
2022/04/02 00:19:20;;;;;;;6.72;2.67;;;0.20;99.90;;;;;;4969295;23;20057;-81
2022/04/02 00:21:46;;;;;;;6.88;3.00;;;0.10;99.90;;;;;;4968396;23;20474;-81
2022/04/02 00:24:12;;;;;;;4.95;2.65;;;0.40;99.90;;;;;;4968976;23;20046;-81
2022/04/02 00:26:37;;;;;;;4.93;2.45;;;0.20;99.90;;;;;;4965278;23;20382;-82
2022/04/02 00:29:05;;;;;;;6.60;2.50;;;1.80;99.90;;;;;;4947823;23;20054;-81
2022/04/02 00:31:32;;;;;;;8.45;3.00;;;0.10;99.90;;;;;;4927667;29;20495;-81
2022/04/02 00:33:57;;;;;;;6.22;2.35;;;1.90;99.90;;;;;;4952965;23;20051;-81
2022/04/02 00:36:24;;;;;;;5.30;2.60;;;0.70;99.90;;;;;;4959848;23;20125;-81
2022/04/02 00:38:50;;;;;;;5.35;2.90;;;0.10;99.90;;;;;;4955978;23;20116;-82
2022/04/02 00:41:16;;;;;;;4.88;2.60;;;0.10;99.90;;;;;;4913495;23;1097781;-81
2022/04/02 00:43:56;;;;;;;7.05;2.90;;;0.20;99.90;;;;;;4949703;23;20059;-82
2022/04/02 00:46:21;;;;;;;5.50;2.80;;;0.00;99.90;;;;;;4958960;23;20058;-82
2022/04/02 00:48:49;;;;;;;6.90;2.95;;;-0.10;99.90;;;;;;4947761;28;20490;-81
2022/04/02 00:51:16;;;;;;;7.63;3.10;;;0.00;99.90;;;;;;4966625;28;20102;-81
2022/04/02 00:53:45;;;;;;;7.03;2.95;;;-0.10;99.90;;;;;;4955317;23;20043;-82
2022/04/02 00:56:13;;;;;;;6.43;2.95;;;-0.10;99.90;;;;;;4949910;23;20055;-81
2022/04/02 00:58:39;;;;;;;8.70;3.00;;;-0.20;99.90;;;;;;4949345;23;20043;-81
2022/04/02 01:01:06;;;;;;;6.65;2.80;;;-0.20;99.90;;;;;;4945725;23;20047;-81
2022/04/02 01:03:33;;;;;;;6.22;3.05;;;-0.50;99.90;;;;;;4919178;23;20050;-81
2022/04/02 01:05:59;;;;;;;6.07;2.55;;;0.80;99.90;;;;;;4956364;23;20075;-81
2022/04/02 01:10:59;;;;;;;6.55;3.03;;;-0.30;99.90;;;;;;4976212;23;20050;-81
2022/04/02 01:13:25;;;;;;;10.15;3.40;;;-0.40;99.90;;;;;;4965232;28;20105;-82
2022/04/02 01:15:51;;;;;;;5.68;3.08;;;-0.40;99.90;;;;;;4956623;23;20047;-81
2022/04/02 01:18:17;;;;;;;6.70;2.90;;;-0.70;99.90;;;;;;4955874;23;20074;-81
2022/04/02 01:20:43;;;;;;;7.15;2.80;;;-0.50;99.90;;;;;;4965285;28;20054;-82
2022/04/02 01:23:09;;;;;;;10.05;3.20;;;-0.80;99.90;;;;;;4972453;23;20386;-81
2022/04/02 01:25:44;;;;;;;5.70;2.92;;;-0.60;99.90;;;;;;4983128;28;20051;-82
2022/04/02 01:28:10;;;;;;;7.18;3.30;;;-0.60;99.90;;;;;;4996709;28;20057;-82
2022/04/02 01:30:36;;;;;;;5.78;3.20;;;-0.70;99.90;;;;;;4997778;28;20039;-82
2022/04/02 01:33:02;;;;;;;5.38;3.17;;;0.20;99.90;;;;;;4998130;28;20046;-81
2022/04/02 01:35:28;;;;;;;8.70;3.42;;;-0.80;99.90;;;;;;4998506;23;20047;-82
2022/04/02 01:37:54;;;;;;;6.85;3.30;;;-0.70;99.90;;;;;;4965429;28;20043;-82
2022/04/02 01:40:20;;;;;;;6.50;2.90;;;-0.70;99.90;;;;;;4958514;28;20162;-82
2022/04/02 01:42:46;;;;;;;7.78;3.30;;;-0.70;99.90;;;;;;4951927;28;20046;-82
2022/04/02 01:45:14;;;;;;;8.07;3.40;;;-1.00;99.90;;;;;;4951428;28;20098;-82
2022/04/02 01:47:40;;;;;;;7.28;3.38;;;-1.00;99.90;;;;;;4967117;28;20054;-82
2022/04/02 01:50:07;;;;;;;8.02;3.25;;;-0.90;99.90;;;;;;4966587;28;20046;-81
2022/04/02 01:52:32;;;;;;;7.95;3.22;;;-0.80;99.90;;;;;;4969021;28;20085;-82
2022/04/02 01:54:58;;;;;;;7.35;3.13;;;-0.90;99.90;;;;;;4954567;28;20490;-82
2022/04/02 01:57:24;;;;;;;6.68;3.17;;;-0.90;99.90;;;;;;4956030;28;20051;-82
2022/04/02 01:59:50;;;;;;;6.68;3.10;;;-0.90;99.90;;;;;;4984601;28;20046;-82
2022/04/02 02:02:17;;;;;;;8.75;2.95;;;-1.00;99.90;;;;;;4966830;28;20556;-82
2022/04/02 02:04:43;;;;;;;6.63;2.75;;;-0.90;99.90;;;;;;4950573;28;20050;-82
2022/04/02 02:07:08;;;;;;;5.20;3.13;;;-0.90;99.90;;;;;;4951101;28;20063;-81
2022/04/02 02:09:35;;;;;;;6.65;3.20;;;-0.80;99.90;;;;;;4967081;28;20066;-82
2022/04/02 02:12:02;;;;;;;5.78;2.85;;;-0.90;99.90;;;;;;4974798;28;20099;-82
2022/04/02 02:14:28;;;;;;;5.25;2.90;;;-0.80;99.90;;;;;;4974406;28;20070;-82
2022/04/02 02:16:55;;;;;;;5.70;3.25;;;-0.90;99.90;;;;;;4967527;28;20577;-82
2022/04/02 02:19:20;;;;;;;8.20;3.15;;;-0.90;99.90;;;;;;4950716;28;20057;-82
2022/04/02 02:21:46;;;;;;;6.20;3.00;;;-0.90;99.90;;;;;;4984802;28;20082;-82
2022/04/02 02:24:12;;;;;;;6.68;3.22;;;-0.90;99.90;;;;;;4966777;28;20046;-82
2022/04/02 02:26:37;;;;;;;6.47;3.20;;;-0.90;99.90;;;;;;4951112;28;20530;-82
2022/04/02 02:29:06;;;;;;;5.40;2.80;;;-1.00;99.90;;;;;;4966469;28;20047;-81
2022/04/02 02:31:33;;;;;;;6.00;2.72;;;-1.00;99.90;;;;;;4951222;28;20054;-82
2022/04/02 02:36:43;;;;;;;7.93;3.25;;;-1.10;99.90;;;;;;4966479;28;20066;-82
2022/04/02 02:39:09;;;;;;;7.25;3.40;;;-1.00;99.90;;;;;;4966633;28;20224;-82
2022/04/02 02:41:35;;;;;;;5.75;3.10;;;-1.00;99.90;;;;;;4982491;28;20122;-82
2022/04/02 02:44:01;;;;;;;6.25;3.45;;;0.10;99.90;;;;;;4965388;28;20097;-82
2022/04/02 02:46:26;;;;;;;7.68;3.00;;;-1.10;99.90;;;;;;4950390;28;20046;-82
2022/04/02 02:48:52;;;;;;;7.53;3.30;;;-1.10;99.90;;;;;;4966315;28;20047;-82
2022/04/02 02:51:18;;;;;;;8.23;3.42;;;-1.20;99.90;;;;;;4950359;28;20047;-82
2022/04/02 02:53:44;;;;;;;7.40;3.08;;;-1.10;99.90;;;;;;4949758;28;20520;-82
2022/04/02 02:56:10;;;;;;;8.77;3.58;;;-1.20;99.90;;;;;;4965303;28;20051;-82
2022/04/02 02:58:36;;;;;;;8.70;3.60;;;-1.40;99.90;;;;;;4965043;28;20078;-82
2022/04/02 03:01:02;;;;;;;7.95;3.80;;;-1.20;99.90;;;;;;4965722;28;20057;-81
2022/04/02 03:03:27;;;;;;;6.00;3.53;;;-0.30;99.90;;;;;;4965366;28;20047;-82
2022/04/02 03:05:53;;;;;;;7.43;3.60;;;-1.30;99.90;;;;;;4965932;28;20051;-82
2022/04/02 03:08:19;;;;;;;9.45;3.53;;;-1.30;99.90;;;;;;4949363;28;20053;-82
2022/04/02 03:10:45;;;;;;;8.43;3.50;;;-1.40;99.90;;;;;;4965794;28;20047;-81
2022/04/02 03:13:11;;;;;;;6.68;3.22;;;-1.30;99.90;;;;;;4965790;28;20454;-82
2022/04/02 03:15:37;;;;;;;9.32;3.45;;;-1.50;99.90;;;;;;4983429;28;20057;-81
2022/04/02 03:18:07;;;;;;;9.88;3.80;;;-1.60;99.90;;;;;;4966085;28;20066;-82
2022/04/02 03:20:34;;;;;;;6.10;3.17;;;-1.40;99.90;;;;;;4965855;28;20062;-82
2022/04/02 03:23:00;;;;;;;6.32;3.65;;;-1.30;99.90;;;;;;4965486;28;20106;-82
2022/04/02 03:25:26;;;;;;;9.50;3.58;;;-1.30;99.90;;;;;;4965491;28;20078;-82
2022/04/02 03:27:53;;;;;;;8.43;3.70;;;-1.30;99.90;;;;;;4949418;28;20057;-82
2022/04/02 03:30:21;;;;;;;6.93;4.10;;;-1.30;99.90;;;;;;4964964;28;20047;-82
2022/04/02 03:32:48;;;;;;;6.72;3.08;;;-1.50;99.90;;;;;;4968330;23;20046;-82
2022/04/02 03:35:14;;;;;;;6.35;2.95;;;-1.50;99.90;;;;;;4962874;29;20051;-81
2022/04/02 03:37:42;;;;;;;6.55;3.28;;;-1.40;99.90;;;;;;4961723;29;20075;-81
2022/04/02 03:40:16;;;;;;;6.10;3.03;;;-1.50;99.90;;;;;;4962903;29;20058;-81
2022/04/02 03:42:44;;;;;;;6.40;3.00;;;-1.30;99.90;;;;;;4945909;29;20051;-81
2022/04/02 03:45:14;;;;;;;6.15;3.45;;;-1.20;99.90;;;;;;4945977;29;20075;-81
2022/04/02 03:47:39;;;;;;;9.93;3.50;;;-1.40;99.90;;;;;;4946221;29;20126;-81
2022/04/02 03:50:06;;;;;;;6.43;3.15;;;-1.50;99.90;;;;;;4945782;29;20067;-81
2022/04/02 03:52:32;;;;;;;6.47;3.13;;;-1.20;99.90;;;;;;4946115;29;20074;-82
2022/04/02 03:54:58;;;;;;;6.85;3.20;;;-1.50;99.90;;;;;;4961061;29;20042;-81
2022/04/02 03:57:24;;;;;;;7.32;3.17;;;-1.40;99.90;;;;;;4944989;29;20051;-81
2022/04/02 03:59:50;;;;;;;5.97;2.75;;;-0.90;99.90;;;;;;4951589;23;20054;-81
2022/04/02 04:02:16;;;;;;;10.95;3.13;;;-1.30;99.90;;;;;;4945124;29;20106;-81
2022/04/02 04:04:42;;;;;;;5.85;3.00;;;-2.10;99.90;;;;;;4944795;29;20495;-81
2022/04/02 04:07:08;;;;;;;6.57;3.00;;;-1.30;99.90;;;;;;4945181;29;20039;-82
2022/04/02 04:09:37;;;;;;;6.75;2.80;;;-1.40;99.90;;;;;;4960623;29;20047;-82
2022/04/02 04:12:03;;;;;;;7.57;3.20;;;-1.40;99.90;;;;;;4929503;29;20368;-81
2022/04/02 04:14:29;;;;;;;7.05;2.90;;;-1.30;99.90;;;;;;4944305;29;20047;-81
2022/04/02 04:16:55;;;;;;;6.20;2.70;;;-1.30;99.90;;;;;;4945130;29;20471;-81
2022/04/02 04:19:21;;;;;;;6.60;2.53;;;-1.50;99.90;;;;;;4944649;29;20082;-82
2022/04/02 04:21:47;;;;;;;6.63;2.60;;;-1.40;99.90;;;;;;4945347;29;20054;-81
2022/04/02 04:24:14;;;;;;;6.10;3.05;;;-1.40;99.90;;;;;;4944319;29;20047;-81
2022/04/02 04:26:41;;;;;;;7.07;2.60;;;-1.40;99.90;;;;;;4945494;29;20067;-82
2022/04/02 04:29:07;;;;;;;5.63;2.47;;;-1.30;99.90;;;;;;4944330;29;20051;-81
2022/04/02 04:31:33;;;;;;;4.65;2.50;;;-1.40;99.90;;;;;;4945506;29;20051;-81
2022/04/02 04:33:59;;;;;;;3.95;2.10;;;-1.50;99.90;;;;;;4945833;29;20051;-82
2022/04/02 04:36:24;;;;;;;4.32;2.13;;;-1.20;99.90;;;;;;4960757;29;20047;-81
2022/04/02 04:38:51;;;;;;;7.97;2.20;;;-1.00;99.90;;;;;;4961350;29;20134;-81
2022/04/02 04:41:18;;;;;;;6.55;2.28;;;-1.40;99.90;;;;;;4945453;29;20047;-81
2022/04/02 04:43:48;;;;;;;4.57;2.38;;;-1.30;99.90;;;;;;4951651;29;20058;-81
2022/04/02 04:46:15;;;;;;;4.63;2.03;;;-1.20;99.90;;;;;;4963631;29;20054;-81
2022/04/02 04:48:41;;;;;;;5.18;1.90;;;-1.20;99.90;;;;;;4945248;29;20054;-81
2022/04/02 04:51:08;;;;;;;4.95;2.00;;;-1.40;99.90;;;;;;4945103;29;20050;-81
2022/04/02 04:53:34;;;;;;;4.53;1.88;;;-1.30;99.90;;;;;;4961953;29;20081;-81
2022/04/02 04:56:00;;;;;;;4.72;2.20;;;-1.40;99.90;;;;;;4944520;29;20095;-81
2022/04/02 04:58:27;;;;;;;4.70;2.13;;;-1.20;99.90;;;;;;4944717;28;20115;-82
2022/04/02 05:00:55;;;;;;;5.88;2.08;;;-1.20;99.90;;;;;;4964144;28;20051;-81
2022/04/02 05:03:22;;;;;;;3.70;1.80;;;-1.20;99.90;;;;;;4948013;28;20046;-81
2022/04/02 05:05:48;;;;;;;5.40;2.10;;;-1.20;99.90;;;;;;4948043;28;20047;-81
2022/04/02 05:08:14;;;;;;;4.88;1.80;;;-1.30;99.90;;;;;;4981655;28;20065;-81
2022/04/02 05:10:41;;;;;;;4.55;1.90;;;-1.30;99.90;;;;;;4963969;28;20534;-81
2022/04/02 05:13:12;;;;;;;5.15;1.80;;;-1.10;99.90;;;;;;4947737;28;20106;-81
2022/04/02 05:15:40;;;;;;;4.70;1.98;;;-0.50;99.90;;;;;;4964050;28;20201;-81
2022/04/02 05:18:06;;;;;;;3.97;1.60;;;-1.20;99.90;;;;;;4964728;28;20074;-81
2022/04/02 05:20:32;;;;;;;3.72;1.83;;;-1.10;99.90;;;;;;4947909;28;20050;-82
2022/04/02 05:22:57;;;;;;;4.25;1.80;;;-1.20;99.90;;;;;;4963126;28;20051;-81
2022/04/02 05:25:24;;;;;;;6.00;1.88;;;-0.10;99.90;;;;;;4981348;28;20062;-81
2022/04/02 05:27:49;;;;;;;3.22;1.58;;;-1.30;99.90;;;;;;4963456;28;20050;-81
2022/04/02 05:30:15;;;;;;;5.35;1.75;;;-1.10;99.90;;;;;;4964117;28;20061;-81
2022/04/02 05:32:41;;;;;;;6.90;1.73;;;-1.10;99.90;;;;;;4947197;28;20057;-82
2022/04/02 05:35:07;;;;;;;4.80;1.70;;;-1.00;99.90;;;;;;4982718;28;20038;-81
2022/04/02 05:37:33;;;;;;;5.07;1.42;;;-1.00;99.90;;;;;;4967724;28;20038;-81
2022/04/02 05:39:58;;;;;;;5.85;1.95;;;-0.90;99.90;;;;;;4951745;28;20041;-81
2022/04/02 05:42:26;;;;;;;4.35;1.65;;;-0.90;99.90;;;;;;4968529;28;20054;-81
2022/04/02 05:44:53;;;;;;;4.25;1.55;;;-0.90;99.90;;;;;;4952559;28;20042;-81
2022/04/02 05:47:19;;;;;;;4.43;2.03;;;-0.90;99.90;;;;;;4951890;28;20077;-82
2022/04/02 05:49:51;;;;;;;7.20;1.55;;;-1.00;99.90;;;;;;4951643;28;20545;-81
2022/04/02 05:52:17;;;;;;;3.28;1.70;;;-1.00;99.90;;;;;;4967046;28;20035;-82
2022/04/02 05:54:42;;;;;;;3.95;1.52;;;-0.90;99.90;;;;;;4966704;28;20078;-81
2022/04/02 05:57:09;;;;;;;4.90;1.60;;;-0.50;99.90;;;;;;4950462;28;20047;-81
2022/04/02 05:59:34;;;;;;;3.92;1.60;;;-1.00;99.90;;;;;;4983567;28;20059;-81
2022/04/02 06:02:00;;;;;;;4.78;1.75;;;-0.40;99.90;;;;;;4951393;28;20069;-81
2022/04/02 06:04:28;;;;;;;5.32;1.50;;;-0.90;99.90;;;;;;4958730;23;20055;-82
2022/04/02 06:06:54;;;;;;;5.63;1.50;;;-0.70;99.90;;;;;;4955710;23;20061;-81
2022/04/02 06:09:20;;;;;;;3.28;1.40;;;-0.60;99.90;;;;;;4965658;28;20054;-81
2022/04/02 06:11:45;;;;;;;6.60;1.50;;;-0.60;99.90;;;;;;4983349;28;20043;-81
2022/04/02 06:14:13;;;;;;;4.72;1.92;;;-0.60;99.90;;;;;;4967516;28;20046;-81
2022/04/02 06:16:39;;;;;;;5.35;1.50;;;-0.50;99.90;;;;;;4990876;28;20047;-81
2022/04/02 06:19:05;;;;;;;4.57;1.40;;;-0.60;99.90;;;;;;4975964;28;20051;-81
2022/04/02 06:21:30;;;;;;;3.88;1.63;;;-0.40;99.90;;;;;;4968217;28;20051;-81
2022/04/02 06:23:56;;;;;;;5.47;1.52;;;0.40;99.90;;;;;;4966056;28;20047;-81
2022/04/02 06:26:21;;;;;;;5.15;1.55;;;-0.60;99.90;;;;;;4992336;23;20375;-82
2022/04/02 06:28:48;;;;;;;9.35;1.83;;;-0.30;99.90;;;;;;4965364;28;20051;-81
2022/04/02 06:31:13;;;;;;;4.72;1.92;;;-0.30;99.90;;;;;;4965195;28;20046;-81
2022/04/02 06:33:39;;;;;;;6.82;1.80;;;-0.40;99.90;;;;;;4982140;28;20043;-81
2022/04/02 06:36:07;;;;;;;7.45;1.70;;;-0.20;99.90;;;;;;4964871;28;20100;-81
2022/04/02 06:38:34;;;;;;;5.53;1.60;;;0.00;99.90;;;;;;4955066;23;20059;-81
2022/04/02 06:41:00;;;;;;;9.02;1.60;;;-0.30;99.90;;;;;;4947366;29;20051;-81
2022/04/02 06:43:25;;;;;;;8.93;2.08;;;-0.10;99.90;;;;;;4963197;29;20055;-82
2022/04/02 06:45:51;;;;;;;5.53;1.70;;;-0.10;99.90;;;;;;4961852;28;20087;-82
2022/04/02 06:48:17;;;;;;;6.28;1.70;;;1.50;99.90;;;;;;4963016;29;20043;-81
2022/04/02 06:50:43;;;;;;;3.22;1.58;;;0.40;99.90;;;;;;4962597;29;20065;-82
2022/04/02 06:53:08;;;;;;;9.70;1.90;;;0.20;99.90;;;;;;4962523;29;20078;-81
2022/04/02 06:55:35;;;;;;;5.80;1.85;;;0.40;99.90;;;;;;4962035;29;20388;-81
2022/04/02 06:58:01;;;;;;;8.52;2.00;;;-0.50;99.90;;;;;;4961593;29;20046;-82
2022/04/02 07:00:28;;;;;;;3.58;1.65;;;0.50;99.90;;;;;;4978245;28;20047;-82
2022/04/02 07:02:54;;;;;;;8.88;1.77;;;0.40;99.90;;;;;;4962846;29;20353;-82
2022/04/02 07:05:19;;;;;;;4.35;1.60;;;0.40;99.90;;;;;;4962056;29;20083;-82
2022/04/02 07:07:46;;;;;;;6.53;1.80;;;2.30;99.90;;;;;;4977915;28;20082;-82
2022/04/02 07:10:13;;;;;;;4.85;1.60;;;1.90;99.90;;;;;;4978835;28;20047;-82
2022/04/02 07:12:39;;;;;;;4.45;1.70;;;0.70;99.90;;;;;;4961990;29;20103;-82
2022/04/02 07:15:06;;;;;;;4.32;2.08;;;0.80;99.90;;;;;;4962591;28;20043;-82
2022/04/02 07:17:32;;;;;;;6.18;2.10;;;0.90;99.90;;;;;;4978030;28;20047;-81
2022/04/02 07:19:59;;;;;;;4.45;1.73;;;0.80;99.90;;;;;;4962228;29;20079;-81
2022/04/02 07:22:26;;;;;;;5.45;1.70;;;1.30;99.90;;;;;;4978113;28;20053;-82
2022/04/02 07:24:53;;;;;;;7.38;1.70;;;0.90;99.90;;;;;;4962450;29;20062;-81
2022/04/02 07:27:25;;;;;;;4.93;1.70;;;1.30;99.90;;;;;;4983383;28;20098;-82
2022/04/02 07:29:55;;;;;;;5.72;1.80;;;0.80;99.90;;;;;;4980020;28;20059;-81
2022/04/02 07:32:21;;;;;;;4.82;1.67;;;0.90;99.90;;;;;;4946719;29;20479;-82
2022/04/02 07:34:47;;;;;;;4.28;1.85;;;0.90;99.90;;;;;;4946589;29;20043;-81
2022/04/02 07:37:35;;;;;;;4.88;1.83;;;1.10;99.90;;;;;;4962644;29;20091;-81
2022/04/02 07:40:11;;;;;;;6.63;1.90;;;1.20;99.90;;;;;;4962018;29;20063;-82
2022/04/02 07:42:57;;;;;;;6.45;2.00;;;1.30;99.90;;;;;;4963423;28;20183;-82
2022/04/02 07:45:30;;;;;;;5.93;1.83;;;1.30;99.90;;;;;;4963028;29;20480;-82
2022/04/02 07:47:57;;;;;;;5.32;2.00;;;1.30;99.90;;;;;;4963394;29;20499;-82
2022/04/02 07:50:27;;;;;;;4.75;1.90;;;1.40;99.90;;;;;;4962398;29;20051;-82
2022/04/02 07:52:55;;;;;;;5.15;1.90;;;1.40;99.90;;;;;;4962123;28;20050;-82
2022/04/02 07:55:22;;;;;;;5.57;2.08;;;1.40;99.90;;;;;;4962360;29;20106;-82
2022/04/02 07:57:50;;;;;;;7.00;2.00;;;1.40;99.90;;;;;;4962491;28;20043;-82
2022/04/02 08:00:19;;;;;;;6.10;2.08;;;1.40;99.90;;;;;;4946586;29;20043;-82
2022/04/02 08:02:48;;;;;;;7.00;2.05;;;1.60;99.90;;;;;;4947009;29;20054;-82
2022/04/02 08:05:16;;;;;;;4.55;1.85;;;1.60;99.90;;;;;;4963445;28;20102;-82
2022/04/02 08:07:44;;;;;;;4.75;1.90;;;1.70;99.90;;;;;;4978788;28;20051;-82
2022/04/02 08:10:12;;;;;;;7.45;2.15;;;1.80;99.90;;;;;;4962855;28;20054;-82
2022/04/02 08:12:39;;;;;;;4.78;1.98;;;1.90;99.90;;;;;;4961731;29;20106;-82
2022/04/02 08:15:09;;;;;;;4.43;2.10;;;2.00;99.90;;;;;;4961952;29;20055;-82
2022/04/02 08:17:38;;;;;;;6.38;2.00;;;2.10;99.90;;;;;;4962241;29;20050;-82
2022/04/02 08:20:04;;;;;;;5.43;1.90;;;1.90;99.90;;;;;;4961966;29;20048;-82
2022/04/02 08:22:30;;;;;;;3.78;1.67;;;2.30;99.90;;;;;;4963435;28;20070;-82
2022/04/02 08:24:58;;;;;;;4.28;2.25;;;2.30;99.90;;;;;;4961646;29;20047;-82
2022/04/02 08:27:38;;;;;;;7.13;2.20;;;2.40;99.90;;;;;;4962451;28;20032;-82
2022/04/02 08:30:17;;;;;;;8.80;2.45;;;2.50;99.90;;;;;;4962533;29;20062;-82
2022/04/02 08:33:04;;;;;;;4.03;1.80;;;2.60;99.90;;;;;;4978793;28;20039;-82
2022/04/02 08:35:56;;;;;;;7.90;2.00;;;2.60;99.90;;;;;;4963577;29;20130;-82
2022/04/02 08:38:54;;;;;;;4.93;1.95;;;2.60;99.90;;;;;;4962110;29;20084;-82
2022/04/02 08:41:29;;;;;;;4.45;1.92;;;2.60;99.90;;;;;;4961550;29;20142;-83
2022/04/02 08:44:15;;;;;;;5.45;1.80;;;2.70;99.90;;;;;;4962119;29;20125;-82
2022/04/02 08:46:56;;;;;;;4.43;2.00;;;2.80;99.90;;;;;;4977755;28;20047;-82
2022/04/02 08:49:23;;;;;;;5.00;1.90;;;2.90;99.90;;;;;;4962201;29;20179;-82
2022/04/02 08:52:05;;;;;;;4.82;1.77;;;2.90;99.90;;;;;;4961259;29;20043;-82
2022/04/02 08:54:45;;;;;;;5.57;1.83;;;3.20;99.90;;;;;;4961670;29;20137;-82
2022/04/02 08:57:28;;;;;;;5.57;1.70;;;3.30;99.90;;;;;;4977301;28;20106;-82
2022/04/02 09:00:14;;;;;;;4.53;1.73;;;3.40;99.90;;;;;;4962285;29;20049;-82
2022/04/02 09:03:09;;;;;;;6.18;1.90;;;3.50;99.90;;;;;;4963734;28;20134;-82
2022/04/02 09:05:51;;;;;;;3.85;1.77;;;3.60;99.90;;;;;;4977935;28;20043;-83
2022/04/02 09:08:38;;;;;;;5.43;1.65;;;3.70;99.90;;;;;;4962165;28;20074;-83
2022/04/02 09:11:28;;;;;;;3.92;1.30;;;4.00;99.90;;;;;;4966397;29;20039;-83
2022/04/02 09:14:21;;;;;;;3.10;1.30;;;4.30;99.90;;;;;;4975876;29;20074;-82
2022/04/02 09:17:10;;;;;;;3.35;1.50;;;4.70;99.90;;;;;;4979269;29;20051;-82
2022/04/02 09:20:00;;;;;;;5.55;1.40;;;4.90;99.90;;;;;;4974287;29;20111;-83
2022/04/02 09:22:38;;;;;;;4.35;1.40;;;5.00;99.90;;;;;;4979972;28;20027;-83
2022/04/02 09:25:42;;;;;;;2.90;1.48;;;5.10;99.90;;;;;;4978437;29;20136;-83
2022/04/02 09:28:40;;;;;;;3.25;1.35;;;5.20;99.90;;;;;;4973022;29;20190;-82
2022/04/02 09:31:15;;;;;;;3.60;1.20;;;5.20;99.90;;;;;;4973293;29;20031;-82
2022/04/02 09:33:55;;;;;;;2.58;1.23;;;5.20;99.90;;;;;;4989117;28;20094;-82
2022/04/02 09:36:37;;;;;;;5.22;1.30;;;5.30;99.90;;;;;;4988607;28;20051;-83
2022/04/02 09:39:21;;;;;;;2.80;1.13;;;5.40;99.90;;;;;;4970802;28;20537;-82
2022/04/02 09:42:02;;;;;;;3.75;1.30;;;5.80;99.90;;;;;;4985804;28;20082;-83
2022/04/02 09:44:47;;;;;;;2.70;1.10;;;6.50;99.90;;;;;;4986163;28;20054;-82
2022/04/02 09:47:21;;;;;;;6.97;1.63;;;6.30;99.90;;;;;;4970331;28;20054;-83
2022/04/02 09:50:09;;;;;;;3.60;1.20;;;7.00;99.90;;;;;;4969316;28;20074;-83
2022/04/02 09:52:47;;;;;;;5.18;1.17;;;6.20;99.90;;;;;;4970433;28;20043;-82
2022/04/02 09:55:23;;;;;;;3.58;1.20;;;6.10;99.90;;;;;;4967977;28;20188;-83
2022/04/02 09:58:21;;;;;;;3.10;1.23;;;6.90;99.90;;;;;;4972526;23;20392;-83
2022/04/02 10:01:11;;;;;;;3.00;1.40;;;5.10;99.90;;;;;;4932915;29;20134;-83
2022/04/02 10:03:39;;;;;;;3.13;1.25;;;6.40;99.90;;;;;;4932777;29;20051;-83
2022/04/02 10:06:40;;;;;;;3.15;1.13;;;6.30;99.90;;;;;;4933122;29;20039;-82
2022/04/02 10:09:13;;;;;;;3.22;1.33;;;5.80;99.90;;;;;;4933950;29;20043;-83
2022/04/02 10:11:50;;;;;;;4.97;1.30;;;5.50;99.90;;;;;;4947809;29;20047;-83
2022/04/02 10:14:22;;;;;;;2.50;1.20;;;5.50;99.90;;;;;;4932878;29;20106;-83
2022/04/02 10:16:55;;;;;;;3.55;1.13;;;5.80;99.90;;;;;;4949145;29;20049;-82
2022/04/02 10:19:43;;;;;;;3.22;1.13;;;5.20;99.90;;;;;;4932422;29;20102;-83
2022/04/02 10:22:11;;;;;;;3.40;1.10;;;5.10;99.90;;;;;;4945283;23;20067;-82
2022/04/02 10:24:38;;;;;;;4.88;1.23;;;5.00;99.90;;;;;;4958317;29;20055;-82
2022/04/02 10:27:07;;;;;;;2.35;1.00;;;6.00;99.90;;;;;;4974120;29;20067;-82
2022/04/02 10:29:48;;;;;;;3.53;1.25;;;5.10;99.90;;;;;;4983316;23;20093;-82
2022/04/02 10:32:29;;;;;;;2.80;1.10;;;5.50;99.90;;;;;;4958552;23;20081;-83
2022/04/02 10:35:01;;;;;;;3.10;1.30;;;6.10;99.90;;;;;;4967450;28;20055;-83
2022/04/02 10:37:43;;;;;;;3.83;1.40;;;6.70;99.90;;;;;;4957376;23;20503;-83
2022/04/02 10:40:16;;;;;;;3.70;1.10;;;7.10;99.90;;;;;;4967180;28;20054;-82
2022/04/02 10:42:50;;;;;;;1.73;0.80;;;7.60;99.90;;;;;;4966952;28;20043;-83
2022/04/02 10:45:19;;;;;;;3.65;1.23;;;6.20;99.90;;;;;;4968163;28;20047;-83
2022/04/02 10:47:55;;;;;;;3.35;1.42;;;6.30;99.90;;;;;;4966996;28;20043;-83
2022/04/02 10:50:24;;;;;;;4.70;1.23;;;7.10;99.90;;;;;;4966515;28;20057;-83
2022/04/02 10:52:51;;;;;;;3.17;1.17;;;7.10;99.90;;;;;;4966884;28;20046;-83
2022/04/02 10:55:19;;;;;;;2.55;1.17;;;7.70;99.90;;;;;;4967545;28;20085;-83
2022/04/02 10:57:46;;;;;;;4.10;1.35;;;6.60;99.90;;;;;;4966317;28;20046;-83
2022/04/02 11:00:13;;;;;;;5.35;1.02;;;6.40;99.90;;;;;;4967692;28;20129;-83
2022/04/02 11:02:40;;;;;;;3.28;1.10;;;6.30;99.90;;;;;;4947086;23;20578;-82
2022/04/02 11:05:11;;;;;;;4.38;1.10;;;6.20;99.90;;;;;;4957407;23;20502;-82
2022/04/02 11:07:43;;;;;;;3.30;1.10;;;6.20;99.90;;;;;;4966566;28;20042;-83
2022/04/02 11:10:13;;;;;;;4.07;1.10;;;6.50;99.90;;;;;;4966447;28;20053;-83
2022/04/02 11:12:42;;;;;;;2.58;1.00;;;7.20;99.90;;;;;;4951247;28;20078;-83
2022/04/02 11:15:17;;;;;;;3.70;1.10;;;7.40;99.90;;;;;;4954987;28;20498;-82
2022/04/02 11:17:46;;;;;;;3.15;1.00;;;7.50;99.90;;;;;;4968429;28;20162;-83
2022/04/02 11:20:23;;;;;;;2.80;1.10;;;6.70;99.90;;;;;;4967413;28;20082;-83
2022/04/02 11:22:52;;;;;;;2.72;0.93;;;7.20;99.90;;;;;;4967822;23;20058;-83
2022/04/02 11:25:28;;;;;;;4.53;1.00;;;7.50;99.90;;;;;;4931630;29;20051;-83
2022/04/02 11:27:55;;;;;;;4.00;1.13;;;7.70;99.90;;;;;;4932820;29;20054;-83
2022/04/02 11:30:26;;;;;;;3.47;1.05;;;7.60;99.90;;;;;;4947394;29;20054;-83
2022/04/02 11:33:01;;;;;;;2.83;1.10;;;8.90;99.90;;;;;;4946845;29;20051;-82
2022/04/02 11:35:30;;;;;;;3.13;1.20;;;7.50;99.90;;;;;;4931794;29;20047;-83
2022/04/02 11:38:02;;;;;;;2.53;1.23;;;7.40;99.90;;;;;;4947053;29;20040;-83
2022/04/02 11:40:30;;;;;;;3.25;1.40;;;7.10;99.90;;;;;;4944716;23;20061;-82
2022/04/02 11:43:00;;;;;;;8.10;3.33;;;6.90;99.90;;;;;;4965826;28;20098;-83
2022/04/02 11:45:27;;;;;;;4.82;2.05;;;8.30;99.90;;;;;;4962557;23;20054;-82
2022/04/02 11:48:11;;;;;;;5.93;4.07;;;6.60;99.90;;;;;;4965189;28;20058;-82
2022/04/02 11:50:40;;;;;;;6.90;3.70;;;6.60;99.90;;;;;;4967806;28;20050;-82
2022/04/02 11:53:07;;;;;;;9.73;3.53;;;7.40;99.90;;;;;;4982419;28;20483;-83
2022/04/02 11:55:37;;;;;;;3.03;1.20;;;7.10;99.90;;;;;;4980187;23;20077;-83
2022/04/02 11:58:10;;;;;;;2.97;1.05;;;7.30;99.90;;;;;;4951269;28;20069;-82
2022/04/02 12:00:42;;;;;;;4.57;1.35;;;7.40;99.90;;;;;;4964669;23;20047;-82
2022/04/02 12:03:22;;;;;;;3.58;1.00;;;7.90;99.90;;;;;;4970318;23;20487;-82
2022/04/02 12:05:49;;;;;;;2.45;1.00;;;8.60;99.90;;;;;;4955325;28;20137;-82
2022/04/02 12:08:29;;;;;;;3.40;1.10;;;7.90;99.90;;;;;;4956195;23;20058;-82
2022/04/02 12:10:56;;;;;;;3.35;1.10;;;8.10;99.90;;;;;;4949492;23;20083;-82
2022/04/02 12:13:30;;;;;;;3.35;1.90;;;9.70;99.90;;;;;;4942969;23;20052;-82
2022/04/02 12:16:09;;;;;;;2.08;1.00;;;8.30;99.90;;;;;;4938458;23;20511;-82
2022/04/02 12:18:53;;;;;;;2.67;0.90;;;8.50;99.90;;;;;;4963067;23;20051;-83
2022/04/02 12:21:34;;;;;;;2.17;0.90;;;9.60;99.90;;;;;;4966702;23;20109;-83
2022/04/02 12:24:01;;;;;;;2.85;1.17;;;8.20;97.10;;;;;;4961547;23;20183;-82
2022/04/02 12:26:28;;;;;;;4.40;1.20;;;9.10;99.90;;;;;;4961037;23;20050;-82
2022/04/02 12:28:59;;;;;;;4.70;1.30;;;8.80;99.90;;;;;;4975517;23;20064;-82
2022/04/02 12:31:32;;;;;;;3.03;0.98;;;8.90;99.90;;;;;;4962589;23;20055;-82
2022/04/02 12:33:59;;;;;;;2.70;1.00;;;8.60;99.90;;;;;;4941758;23;20055;-82
2022/04/02 12:36:29;;;;;;;3.28;1.20;;;8.60;99.90;;;;;;4961872;23;20141;-82
2022/04/02 12:39:00;;;;;;;2.83;1.10;;;9.00;99.90;;;;;;4956905;23;20059;-82
2022/04/02 12:41:28;;;;;;;4.22;1.13;;;9.80;99.90;;;;;;4948498;23;20067;-82
2022/04/02 12:44:03;;;;;;;3.28;1.20;;;8.60;99.90;;;;;;4961986;23;20098;-82
2022/04/02 12:46:35;;;;;;;2.53;1.00;;;8.20;99.90;;;;;;4954113;23;20062;-82
2022/04/02 12:49:01;;;;;;;2.83;1.00;;;8.20;98.40;;;;;;4969459;23;20114;-82
2022/04/02 12:51:30;;;;;;;3.45;1.05;;;8.60;99.90;;;;;;4959768;23;20052;-82
2022/04/02 12:54:01;;;;;;;4.20;1.05;;;10.10;99.90;;;;;;4937263;23;20055;-82
2022/04/02 12:56:33;;;;;;;2.95;1.10;;;9.40;99.90;;;;;;4945455;23;20055;-82
2022/04/02 12:59:00;;;;;;;3.47;1.08;;;9.40;99.90;;;;;;4944815;23;20145;-82
2022/04/02 13:01:28;;;;;;;3.70;0.93;;;9.00;99.90;;;;;;4945345;23;20055;-83
2022/04/02 13:03:59;;;;;;;4.78;1.15;;;9.10;99.80;;;;;;4953677;23;20051;-82
2022/04/02 13:06:26;;;;;;;2.92;1.00;;;9.20;99.90;;;;;;4959144;23;20048;-83
2022/04/02 13:08:56;;;;;;;4.03;1.00;;;8.90;98.80;;;;;;4945942;23;21261;-82
2022/04/02 13:11:47;;;;;;;2.63;1.00;;;10.00;97.70;;;;;;4939148;23;20526;-83
2022/04/02 13:14:35;;;;;;;4.88;2.15;;;8.70;90.00;;;;;;4942961;23;20060;-82